OAL277 LCPH-LGAV
Flight info
| Callsign | OAL277 |
|---|---|
| Flight time | 1h 41m |
| Altitude | 36000 |
| Route | GENOS DCT PEDER DCT LUTIG DCT RDS UL995 USINI DCT AKINA DCT RIPLI UL995 VARIX |
| Aircraft | B738/M-SDE2E3FGHIRWXY/LB1 |
Departure
| Time | 2026-04-17 21:01 |
|---|---|
| Airport | Paphos International Airport (LCPH) |
Arrival
| Time | 2026-04-17 22:42 |
|---|---|
| Airport | Athens Eleftherios Venizelos International Airport (LGAV) |
| Time | Latitude | Longitude | Altitude | Speed | Heading |
|---|---|---|---|---|---|
| 2026-04-17 20:24 | 34.71299 | 32.48670 | 45 ft | 0 kts | 154° |
| 2026-04-17 20:43 | 34.71319 | 32.48659 | 45 ft | 4 kts | 157° |
| 2026-04-17 20:43 | 34.71344 | 32.48647 | 42 ft | 4 kts | 162° |
| 2026-04-17 20:43 | 34.71370 | 32.48640 | 43 ft | 4 kts | 176° |
| 2026-04-17 20:44 | 34.71393 | 32.48644 | 40 ft | 4 kts | 226° |
| 2026-04-17 20:44 | 34.71398 | 32.48650 | 40 ft | 0 kts | 245° |
| 2026-04-17 20:52 | 34.71394 | 32.48642 | 41 ft | 2 kts | 243° |
| 2026-04-17 20:52 | 34.71390 | 32.48631 | 42 ft | 2 kts | 245° |
| 2026-04-17 20:53 | 34.71380 | 32.48606 | 45 ft | 5 kts | 245° |
| 2026-04-17 20:53 | 34.71362 | 32.48558 | 45 ft | 8 kts | 245° |
| 2026-04-17 20:53 | 34.71347 | 32.48486 | 45 ft | 10 kts | 276° |
| 2026-04-17 20:53 | 34.71368 | 32.48399 | 45 ft | 11 kts | 291° |
| 2026-04-17 20:54 | 34.71397 | 32.48303 | 45 ft | 12 kts | 291° |
| 2026-04-17 20:54 | 34.71440 | 32.48258 | 45 ft | 8 kts | 2° |
| 2026-04-17 20:54 | 34.71497 | 32.48282 | 45 ft | 9 kts | 20° |
| 2026-04-17 20:54 | 34.71564 | 32.48311 | 42 ft | 11 kts | 21° |
| 2026-04-17 20:55 | 34.71640 | 32.48345 | 45 ft | 12 kts | 20° |
| 2026-04-17 20:55 | 34.71722 | 32.48383 | 45 ft | 13 kts | 20° |
| 2026-04-17 20:55 | 34.71807 | 32.48420 | 45 ft | 10 kts | 20° |
| 2026-04-17 20:55 | 34.71883 | 32.48454 | 43 ft | 13 kts | 21° |
| 2026-04-17 20:56 | 34.71963 | 32.48486 | 44 ft | 11 kts | 2° |
| 2026-04-17 20:56 | 34.72013 | 32.48423 | 44 ft | 12 kts | 293° |
| 2026-04-17 20:56 | 34.72045 | 32.48323 | 44 ft | 13 kts | 290° |
| 2026-04-17 20:56 | 34.72078 | 32.48211 | 42 ft | 15 kts | 290° |
| 2026-04-17 20:57 | 34.72115 | 32.48088 | 45 ft | 16 kts | 290° |
| 2026-04-17 20:57 | 34.72155 | 32.47957 | 45 ft | 17 kts | 290° |
| 2026-04-17 20:57 | 34.72199 | 32.47816 | 45 ft | 18 kts | 291° |
| 2026-04-17 20:57 | 34.72245 | 32.47672 | 45 ft | 19 kts | 291° |
| 2026-04-17 20:58 | 34.72293 | 32.47516 | 43 ft | 20 kts | 290° |
| 2026-04-17 20:58 | 34.72344 | 32.47350 | 44 ft | 21 kts | 291° |
| 2026-04-17 20:58 | 34.72388 | 32.47211 | 44 ft | 11 kts | 290° |
| 2026-04-17 20:58 | 34.72378 | 32.47164 | 44 ft | 5 kts | 205° |
| 2026-04-17 20:59 | 34.72336 | 32.47151 | 44 ft | 7 kts | 192° |
| 2026-04-17 20:59 | 34.72279 | 32.47127 | 43 ft | 8 kts | 204° |
| 2026-04-17 20:59 | 34.72233 | 32.47120 | 42 ft | 7 kts | 158° |
| 2026-04-17 20:59 | 34.72220 | 32.47159 | 42 ft | 5 kts | 105° |
| 2026-04-17 21:00 | 34.72208 | 32.47206 | 42 ft | 6 kts | 109° |
| 2026-04-17 21:00 | 34.72178 | 32.47302 | 44 ft | 30 kts | 111° |
| 2026-04-17 21:00 | 34.72013 | 32.47837 | 45 ft | 103 kts | 110° |
| 2026-04-17 21:00 | 34.71690 | 32.48899 | 60 ft | 160 kts | 110° |
| 2026-04-17 21:01 | 34.71251 | 32.50193 | 705 ft | 164 kts | 112° |
| 2026-04-17 21:01 | 34.70811 | 32.51531 | 1408 ft | 178 kts | 108° |
| 2026-04-17 21:01 | 34.70444 | 32.52991 | 2127 ft | 185 kts | 107° |
| 2026-04-17 21:01 | 34.70099 | 32.54485 | 2979 ft | 188 kts | 109° |
| 2026-04-17 21:02 | 34.69408 | 32.55908 | 3335 ft | 211 kts | 141° |
| 2026-04-17 21:02 | 34.68102 | 32.56750 | 3798 ft | 211 kts | 171° |
| 2026-04-17 21:02 | 34.66684 | 32.56748 | 4573 ft | 203 kts | 196° |
| 2026-04-17 21:02 | 34.65387 | 32.56041 | 5165 ft | 205 kts | 217° |
| 2026-04-17 21:03 | 34.64448 | 32.54790 | 5923 ft | 209 kts | 244° |
| 2026-04-17 21:03 | 34.64369 | 32.52973 | 6551 ft | 228 kts | 276° |
| 2026-04-17 21:03 | 34.64678 | 32.51045 | 7072 ft | 242 kts | 270° |
| 2026-04-17 21:03 | 34.64753 | 32.48966 | 7643 ft | 250 kts | 263° |
| 2026-04-17 21:04 | 34.64600 | 32.46851 | 8373 ft | 253 kts | 257° |
| 2026-04-17 21:04 | 34.64307 | 32.44746 | 9210 ft | 254 kts | 255° |
| 2026-04-17 21:04 | 34.63939 | 32.42587 | 9788 ft | 266 kts | 253° |
| 2026-04-17 21:04 | 34.63534 | 32.40369 | 10473 ft | 271 kts | 253° |
| 2026-04-17 21:05 | 34.63347 | 32.38094 | 11215 ft | 281 kts | 270° |
| 2026-04-17 21:05 | 34.63625 | 32.35692 | 12031 ft | 286 kts | 274° |
| 2026-04-17 21:05 | 34.63939 | 32.33321 | 12816 ft | 290 kts | 274° |
| 2026-04-17 21:05 | 34.64259 | 32.30886 | 13625 ft | 293 kts | 274° |
| 2026-04-17 21:06 | 34.64581 | 32.28380 | 14055 ft | 310 kts | 274° |
| 2026-04-17 21:06 | 34.64919 | 32.25685 | 14228 ft | 334 kts | 274° |
| 2026-04-17 21:06 | 34.65275 | 32.22834 | 14661 ft | 348 kts | 274° |
| 2026-04-17 21:06 | 34.65641 | 32.19897 | 15335 ft | 353 kts | 274° |
| 2026-04-17 21:07 | 34.66008 | 32.16941 | 16116 ft | 355 kts | 273° |
| 2026-04-17 21:07 | 34.66294 | 32.13950 | 16884 ft | 356 kts | 270° |
| 2026-04-17 21:07 | 34.66499 | 32.10943 | 17620 ft | 360 kts | 269° |
| 2026-04-17 21:07 | 34.66687 | 32.07896 | 18284 ft | 364 kts | 269° |
| 2026-04-17 21:08 | 34.66882 | 32.04814 | 18909 ft | 367 kts | 269° |
| 2026-04-17 21:08 | 34.67088 | 32.01708 | 19527 ft | 371 kts | 270° |
| 2026-04-17 21:08 | 34.67300 | 31.98613 | 20147 ft | 374 kts | 270° |
| 2026-04-17 21:08 | 34.67519 | 31.95451 | 20757 ft | 377 kts | 270° |
| 2026-04-17 21:09 | 34.67743 | 31.92265 | 21360 ft | 380 kts | 271° |
| 2026-04-17 21:09 | 34.68376 | 31.89099 | 21921 ft | 395 kts | 288° |
| 2026-04-17 21:09 | 34.69685 | 31.86119 | 22508 ft | 402 kts | 294° |
| 2026-04-17 21:09 | 34.71127 | 31.83176 | 23066 ft | 407 kts | 295° |
| 2026-04-17 21:10 | 34.72606 | 31.80224 | 23538 ft | 411 kts | 296° |
| 2026-04-17 21:10 | 34.74096 | 31.77252 | 24012 ft | 414 kts | 296° |
| 2026-04-17 21:10 | 34.75588 | 31.74252 | 24496 ft | 416 kts | 295° |
| 2026-04-17 21:10 | 34.77083 | 31.71220 | 24965 ft | 418 kts | 295° |
| 2026-04-17 21:11 | 34.78573 | 31.68176 | 25422 ft | 420 kts | 295° |
| 2026-04-17 21:11 | 34.80069 | 31.65107 | 25885 ft | 422 kts | 295° |
| 2026-04-17 21:11 | 34.81566 | 31.62023 | 26322 ft | 424 kts | 295° |
| 2026-04-17 21:11 | 34.83073 | 31.58913 | 26759 ft | 427 kts | 295° |
| 2026-04-17 21:12 | 34.84564 | 31.55833 | 27156 ft | 430 kts | 295° |
| 2026-04-17 21:12 | 34.86084 | 31.52689 | 27569 ft | 432 kts | 295° |
| 2026-04-17 21:12 | 34.87613 | 31.49526 | 27987 ft | 434 kts | 295° |
| 2026-04-17 21:12 | 34.89146 | 31.46351 | 28364 ft | 437 kts | 295° |
| 2026-04-17 21:13 | 34.90689 | 31.43155 | 28764 ft | 439 kts | 295° |
| 2026-04-17 21:13 | 34.92240 | 31.39938 | 29137 ft | 441 kts | 295° |
| 2026-04-17 21:13 | 34.93796 | 31.36707 | 29518 ft | 443 kts | 295° |
| 2026-04-17 21:13 | 34.95360 | 31.33457 | 29845 ft | 445 kts | 295° |
| 2026-04-17 21:14 | 34.96931 | 31.30189 | 30110 ft | 448 kts | 295° |
| 2026-04-17 21:14 | 34.98510 | 31.26901 | 30380 ft | 450 kts | 295° |
| 2026-04-17 21:14 | 35.00093 | 31.23603 | 30668 ft | 452 kts | 295° |
| 2026-04-17 21:14 | 35.01679 | 31.20295 | 30998 ft | 452 kts | 295° |
| 2026-04-17 21:15 | 35.03270 | 31.16976 | 31373 ft | 451 kts | 295° |
| 2026-04-17 21:15 | 35.04851 | 31.13672 | 31744 ft | 450 kts | 295° |
| 2026-04-17 21:15 | 35.06431 | 31.10368 | 32070 ft | 451 kts | 295° |
| 2026-04-17 21:15 | 35.08010 | 31.07062 | 32392 ft | 451 kts | 295° |
| 2026-04-17 21:16 | 35.09590 | 31.03749 | 32724 ft | 451 kts | 295° |
| 2026-04-17 21:16 | 35.11149 | 31.00476 | 33058 ft | 451 kts | 295° |
| 2026-04-17 21:16 | 35.12727 | 30.97164 | 33395 ft | 451 kts | 295° |
| 2026-04-17 21:16 | 35.14303 | 30.93851 | 33684 ft | 452 kts | 295° |
| 2026-04-17 21:17 | 35.15883 | 30.90525 | 33953 ft | 452 kts | 295° |
| 2026-04-17 21:17 | 35.17464 | 30.87197 | 34246 ft | 451 kts | 295° |
| 2026-04-17 21:17 | 35.18975 | 30.83843 | 34545 ft | 448 kts | 292° |
| 2026-04-17 21:17 | 35.20395 | 30.80447 | 34818 ft | 447 kts | 291° |
| 2026-04-17 21:18 | 35.21772 | 30.77041 | 35086 ft | 447 kts | 291° |
| 2026-04-17 21:18 | 35.23138 | 30.73634 | 35364 ft | 446 kts | 291° |
| 2026-04-17 21:18 | 35.24487 | 30.70279 | 35639 ft | 445 kts | 291° |
| 2026-04-17 21:18 | 35.25860 | 30.66884 | 35899 ft | 445 kts | 291° |
| 2026-04-17 21:19 | 35.27238 | 30.63493 | 36163 ft | 445 kts | 292° |
| 2026-04-17 21:19 | 35.28618 | 30.60109 | 36440 ft | 444 kts | 292° |
| 2026-04-17 21:19 | 35.29996 | 30.56732 | 36708 ft | 443 kts | 292° |
| 2026-04-17 21:19 | 35.31372 | 30.53359 | 36959 ft | 442 kts | 292° |
| 2026-04-17 21:20 | 35.32745 | 30.49991 | 37207 ft | 442 kts | 292° |
| 2026-04-17 21:20 | 35.34116 | 30.46623 | 37467 ft | 441 kts | 291° |
| 2026-04-17 21:20 | 35.35021 | 30.44398 | 37638 ft | 440 kts | 291° |
| 2026-04-17 21:20 | 35.36386 | 30.41040 | 37892 ft | 440 kts | 291° |
| 2026-04-17 21:21 | 35.37747 | 30.37687 | 38125 ft | 439 kts | 291° |
| 2026-04-17 21:21 | 35.39104 | 30.34339 | 38359 ft | 438 kts | 291° |
| 2026-04-17 21:21 | 35.40460 | 30.30991 | 38549 ft | 438 kts | 291° |
| 2026-04-17 21:21 | 35.41815 | 30.27644 | 38715 ft | 438 kts | 291° |
| 2026-04-17 21:22 | 35.43168 | 30.24294 | 38852 ft | 438 kts | 292° |
| 2026-04-17 21:22 | 35.44521 | 30.20942 | 38999 ft | 438 kts | 292° |
| 2026-04-17 21:22 | 35.45869 | 30.17602 | 39167 ft | 438 kts | 292° |
| 2026-04-17 21:22 | 35.47218 | 30.14254 | 39327 ft | 437 kts | 292° |
| 2026-04-17 21:23 | 35.48546 | 30.10953 | 39471 ft | 437 kts | 292° |
| 2026-04-17 21:23 | 35.49892 | 30.07606 | 39600 ft | 437 kts | 292° |
| 2026-04-17 21:23 | 35.52589 | 30.00889 | 39685 ft | 439 kts | 292° |
| 2026-04-17 21:24 | 35.55385 | 29.94209 | 39692 ft | 440 kts | 294° |
| 2026-04-17 21:24 | 35.58290 | 29.87591 | 39695 ft | 439 kts | 294° |
| 2026-04-17 21:25 | 35.61171 | 29.81013 | 39693 ft | 439 kts | 294° |
| 2026-04-17 21:25 | 35.64045 | 29.74387 | 39692 ft | 439 kts | 294° |
| 2026-04-17 21:26 | 35.66904 | 29.67758 | 39691 ft | 439 kts | 294° |
| 2026-04-17 21:26 | 35.69757 | 29.61127 | 39688 ft | 439 kts | 294° |
| 2026-04-17 21:27 | 35.72609 | 29.54483 | 39688 ft | 439 kts | 294° |
| 2026-04-17 21:27 | 35.75458 | 29.47835 | 39688 ft | 439 kts | 294° |
| 2026-04-17 21:28 | 35.78309 | 29.41170 | 39686 ft | 439 kts | 294° |
| 2026-04-17 21:28 | 35.81137 | 29.34543 | 39686 ft | 440 kts | 294° |
| 2026-04-17 21:29 | 35.83985 | 29.27857 | 39690 ft | 441 kts | 294° |
| 2026-04-17 21:29 | 35.86834 | 29.21156 | 39689 ft | 441 kts | 294° |
| 2026-04-17 21:30 | 35.89685 | 29.14436 | 39690 ft | 442 kts | 294° |
| 2026-04-17 21:30 | 35.92524 | 29.07731 | 39688 ft | 443 kts | 294° |
| 2026-04-17 21:31 | 35.95377 | 29.00979 | 39695 ft | 444 kts | 294° |
| 2026-04-17 21:31 | 35.98229 | 28.94215 | 39694 ft | 444 kts | 294° |
| 2026-04-17 21:32 | 36.01081 | 28.87439 | 39694 ft | 445 kts | 294° |
| 2026-04-17 21:32 | 36.03935 | 28.80643 | 39694 ft | 446 kts | 294° |
| 2026-04-17 21:33 | 36.06789 | 28.73834 | 39689 ft | 446 kts | 294° |
| 2026-04-17 21:33 | 36.09639 | 28.67018 | 39692 ft | 446 kts | 294° |
| 2026-04-17 21:34 | 36.12482 | 28.60205 | 39685 ft | 446 kts | 294° |
| 2026-04-17 21:35 | 36.16746 | 28.49962 | 39682 ft | 446 kts | 295° |
| 2026-04-17 21:35 | 36.19560 | 28.43183 | 39683 ft | 446 kts | 295° |
| 2026-04-17 21:36 | 36.22392 | 28.36348 | 39684 ft | 446 kts | 295° |
| 2026-04-17 21:36 | 36.25216 | 28.29518 | 39686 ft | 445 kts | 295° |
| 2026-04-17 21:37 | 36.28037 | 28.22680 | 39686 ft | 445 kts | 295° |
| 2026-04-17 21:37 | 36.30858 | 28.15826 | 39694 ft | 445 kts | 295° |
| 2026-04-17 21:38 | 36.33666 | 28.08992 | 39680 ft | 445 kts | 295° |
| 2026-04-17 21:38 | 36.36303 | 28.02053 | 39691 ft | 444 kts | 291° |
| 2026-04-17 21:39 | 36.38746 | 27.95063 | 39696 ft | 444 kts | 291° |
| 2026-04-17 21:39 | 36.41228 | 27.88038 | 39690 ft | 444 kts | 292° |
| 2026-04-17 21:40 | 36.43735 | 27.81020 | 39689 ft | 444 kts | 292° |
| 2026-04-17 21:40 | 36.46243 | 27.73996 | 39706 ft | 444 kts | 292° |
| 2026-04-17 21:41 | 36.48746 | 27.66959 | 39694 ft | 445 kts | 292° |
| 2026-04-17 21:41 | 36.51248 | 27.59913 | 39701 ft | 445 kts | 292° |
| 2026-04-17 21:42 | 36.53726 | 27.52917 | 39706 ft | 445 kts | 292° |
| 2026-04-17 21:42 | 36.56214 | 27.45873 | 39710 ft | 445 kts | 292° |
| 2026-04-17 21:43 | 36.58702 | 27.38818 | 39716 ft | 445 kts | 292° |
| 2026-04-17 21:43 | 36.61184 | 27.31760 | 39719 ft | 445 kts | 292° |
| 2026-04-17 21:44 | 36.63664 | 27.24691 | 39718 ft | 445 kts | 292° |
| 2026-04-17 21:44 | 36.66137 | 27.17628 | 39722 ft | 445 kts | 292° |
| 2026-04-17 21:45 | 36.68610 | 27.10546 | 39722 ft | 445 kts | 292° |
| 2026-04-17 21:45 | 36.71077 | 27.03458 | 39722 ft | 445 kts | 292° |
| 2026-04-17 21:46 | 36.73540 | 26.96358 | 39721 ft | 445 kts | 292° |
| 2026-04-17 21:46 | 36.75994 | 26.89269 | 39725 ft | 445 kts | 292° |
| 2026-04-17 21:47 | 36.78446 | 26.82172 | 39730 ft | 445 kts | 292° |
| 2026-04-17 21:47 | 36.80876 | 26.75120 | 39729 ft | 445 kts | 292° |
| 2026-04-17 21:48 | 36.83317 | 26.68018 | 39730 ft | 445 kts | 292° |
| 2026-04-17 21:48 | 36.85755 | 26.60909 | 39737 ft | 445 kts | 292° |
| 2026-04-17 21:49 | 36.88191 | 26.53789 | 39738 ft | 445 kts | 292° |
| 2026-04-17 21:49 | 36.90624 | 26.46662 | 39740 ft | 446 kts | 292° |
| 2026-04-17 21:50 | 36.93052 | 26.39532 | 39738 ft | 446 kts | 292° |
| 2026-04-17 21:50 | 36.95471 | 26.32411 | 39741 ft | 446 kts | 292° |
| 2026-04-17 21:51 | 36.97897 | 26.25253 | 39746 ft | 446 kts | 292° |
| 2026-04-17 21:51 | 37.00299 | 26.18152 | 39745 ft | 446 kts | 292° |
| 2026-04-17 21:52 | 37.02714 | 26.10997 | 39745 ft | 446 kts | 292° |
| 2026-04-17 21:52 | 37.03929 | 26.07391 | 39357 ft | 453 kts | 292° |
| 2026-04-17 21:52 | 37.05154 | 26.03752 | 38871 ft | 453 kts | 292° |
| 2026-04-17 21:52 | 37.06377 | 26.00113 | 38279 ft | 453 kts | 292° |
| 2026-04-17 21:53 | 37.07599 | 25.96470 | 37560 ft | 453 kts | 292° |
| 2026-04-17 21:53 | 37.08815 | 25.92842 | 36931 ft | 451 kts | 293° |
| 2026-04-17 21:53 | 37.10026 | 25.89226 | 36297 ft | 450 kts | 293° |
| 2026-04-17 21:53 | 37.11236 | 25.85608 | 35675 ft | 449 kts | 294° |
| 2026-04-17 21:54 | 37.12438 | 25.82008 | 34998 ft | 449 kts | 294° |
| 2026-04-17 21:54 | 37.13630 | 25.78436 | 34441 ft | 447 kts | 294° |
| 2026-04-17 21:54 | 37.14821 | 25.74861 | 33966 ft | 443 kts | 294° |
| 2026-04-17 21:54 | 37.16004 | 25.71304 | 33434 ft | 440 kts | 294° |
| 2026-04-17 21:55 | 37.17175 | 25.67780 | 32900 ft | 436 kts | 294° |
| 2026-04-17 21:55 | 37.18331 | 25.64297 | 32415 ft | 431 kts | 295° |
| 2026-04-17 21:55 | 37.19479 | 25.60833 | 31938 ft | 427 kts | 295° |
| 2026-04-17 21:55 | 37.20615 | 25.57405 | 31472 ft | 423 kts | 295° |
| 2026-04-17 21:56 | 37.21740 | 25.54004 | 31017 ft | 420 kts | 295° |
| 2026-04-17 21:56 | 37.22853 | 25.50635 | 30568 ft | 416 kts | 295° |
| 2026-04-17 21:56 | 37.23957 | 25.47290 | 30124 ft | 413 kts | 295° |
| 2026-04-17 21:56 | 37.25052 | 25.43970 | 29646 ft | 411 kts | 296° |
| 2026-04-17 21:57 | 37.26142 | 25.40663 | 29137 ft | 408 kts | 296° |
| 2026-04-17 21:57 | 37.27218 | 25.37393 | 28655 ft | 404 kts | 296° |
| 2026-04-17 21:57 | 37.28230 | 25.34116 | 28185 ft | 401 kts | 293° |
| 2026-04-17 21:57 | 37.29133 | 25.30818 | 27718 ft | 399 kts | 292° |
| 2026-04-17 21:58 | 37.29998 | 25.27510 | 27276 ft | 395 kts | 291° |
| 2026-04-17 21:58 | 37.30847 | 25.24250 | 26840 ft | 392 kts | 291° |
| 2026-04-17 21:58 | 37.31701 | 25.20998 | 26398 ft | 390 kts | 292° |
| 2026-04-17 21:58 | 37.32556 | 25.17778 | 25968 ft | 387 kts | 292° |
| 2026-04-17 21:59 | 37.33410 | 25.14575 | 25540 ft | 385 kts | 292° |
| 2026-04-17 21:59 | 37.34248 | 25.11439 | 25116 ft | 383 kts | 292° |
| 2026-04-17 21:59 | 37.35096 | 25.08271 | 24690 ft | 381 kts | 292° |
| 2026-04-17 21:59 | 37.35939 | 25.05111 | 24249 ft | 381 kts | 292° |
| 2026-04-17 22:00 | 37.36779 | 25.01959 | 23790 ft | 380 kts | 292° |
| 2026-04-17 22:00 | 37.37621 | 24.98798 | 23302 ft | 381 kts | 292° |
| 2026-04-17 22:00 | 37.38461 | 24.95639 | 22805 ft | 379 kts | 291° |
| 2026-04-17 22:00 | 37.39293 | 24.92507 | 22359 ft | 377 kts | 291° |
| 2026-04-17 22:01 | 37.40120 | 24.89386 | 21904 ft | 374 kts | 292° |
| 2026-04-17 22:01 | 37.40940 | 24.86297 | 21496 ft | 371 kts | 292° |
| 2026-04-17 22:01 | 37.41741 | 24.83267 | 21072 ft | 368 kts | 291° |
| 2026-04-17 22:01 | 37.42545 | 24.80219 | 20655 ft | 365 kts | 292° |
| 2026-04-17 22:02 | 37.43344 | 24.77196 | 20244 ft | 363 kts | 292° |
| 2026-04-17 22:02 | 37.44138 | 24.74182 | 19830 ft | 361 kts | 292° |
| 2026-04-17 22:02 | 37.44924 | 24.71195 | 19418 ft | 359 kts | 292° |
| 2026-04-17 22:02 | 37.45707 | 24.68222 | 19005 ft | 357 kts | 291° |
| 2026-04-17 22:03 | 37.46486 | 24.65255 | 18594 ft | 356 kts | 292° |
| 2026-04-17 22:03 | 37.47260 | 24.62304 | 18180 ft | 355 kts | 292° |
| 2026-04-17 22:03 | 37.48033 | 24.59357 | 17715 ft | 353 kts | 292° |
| 2026-04-17 22:03 | 37.48802 | 24.56424 | 17274 ft | 351 kts | 292° |
| 2026-04-17 22:04 | 37.49563 | 24.53515 | 16856 ft | 348 kts | 292° |
| 2026-04-17 22:04 | 37.50318 | 24.50625 | 16446 ft | 346 kts | 292° |
| 2026-04-17 22:04 | 37.51054 | 24.47803 | 16054 ft | 343 kts | 292° |
| 2026-04-17 22:04 | 37.51795 | 24.44961 | 15655 ft | 340 kts | 291° |
| 2026-04-17 22:05 | 37.52529 | 24.42142 | 15264 ft | 337 kts | 292° |
| 2026-04-17 22:05 | 37.53259 | 24.39340 | 14866 ft | 335 kts | 291° |
| 2026-04-17 22:05 | 37.53983 | 24.36554 | 14467 ft | 332 kts | 291° |
| 2026-04-17 22:05 | 37.54700 | 24.33792 | 14085 ft | 330 kts | 292° |
| 2026-04-17 22:06 | 37.55408 | 24.31046 | 13654 ft | 329 kts | 289° |
| 2026-04-17 22:06 | 37.55727 | 24.28156 | 13084 ft | 337 kts | 273° |
| 2026-04-17 22:06 | 37.55611 | 24.25204 | 12624 ft | 337 kts | 269° |
| 2026-04-17 22:06 | 37.55424 | 24.22266 | 12217 ft | 334 kts | 269° |
| 2026-04-17 22:07 | 37.55260 | 24.19393 | 11827 ft | 331 kts | 269° |
| 2026-04-17 22:07 | 37.55117 | 24.16507 | 11444 ft | 328 kts | 270° |
| 2026-04-17 22:07 | 37.54984 | 24.13643 | 11039 ft | 326 kts | 270° |
| 2026-04-17 22:07 | 37.54855 | 24.10797 | 10635 ft | 325 kts | 270° |
| 2026-04-17 22:08 | 37.54725 | 24.07966 | 10305 ft | 321 kts | 270° |
| 2026-04-17 22:08 | 37.54595 | 24.05198 | 10171 ft | 311 kts | 270° |
| 2026-04-17 22:08 | 37.54512 | 24.03412 | 10070 ft | 305 kts | 270° |
| 2026-04-17 22:08 | 37.54390 | 24.00783 | 9933 ft | 297 kts | 270° |
| 2026-04-17 22:09 | 37.54230 | 23.97390 | 9635 ft | 290 kts | 270° |
| 2026-04-17 22:09 | 37.54150 | 23.95681 | 9428 ft | 289 kts | 270° |
| 2026-04-17 22:09 | 37.53994 | 23.92352 | 9037 ft | 286 kts | 270° |
| 2026-04-17 22:09 | 37.53914 | 23.90662 | 8832 ft | 285 kts | 270° |
| 2026-04-17 22:10 | 37.53795 | 23.88181 | 8538 ft | 283 kts | 270° |
| 2026-04-17 22:10 | 37.53676 | 23.85716 | 8255 ft | 281 kts | 270° |
| 2026-04-17 22:10 | 37.53559 | 23.83292 | 8146 ft | 273 kts | 270° |
| 2026-04-17 22:10 | 37.53444 | 23.80945 | 7992 ft | 262 kts | 270° |
| 2026-04-17 22:11 | 37.53337 | 23.78690 | 7658 ft | 263 kts | 273° |
| 2026-04-17 22:11 | 37.53682 | 23.76473 | 7198 ft | 257 kts | 302° |
| 2026-04-17 22:11 | 37.54810 | 23.74825 | 6771 ft | 246 kts | 330° |
| 2026-04-17 22:11 | 37.56345 | 23.73990 | 6350 ft | 239 kts | 351° |
| 2026-04-17 22:12 | 37.57990 | 23.73755 | 5916 ft | 237 kts | 359° |
| 2026-04-17 22:12 | 37.59632 | 23.73646 | 5463 ft | 236 kts | 359° |
| 2026-04-17 22:12 | 37.61274 | 23.73542 | 5019 ft | 236 kts | 360° |
| 2026-04-17 22:12 | 37.62911 | 23.73440 | 4572 ft | 234 kts | 359° |
| 2026-04-17 22:13 | 37.64530 | 23.73324 | 4141 ft | 232 kts | 359° |
| 2026-04-17 22:13 | 37.66094 | 23.73205 | 4031 ft | 216 kts | 359° |
| 2026-04-17 22:13 | 37.67536 | 23.73092 | 4004 ft | 201 kts | 358° |
| 2026-04-17 22:13 | 37.68916 | 23.72994 | 4007 ft | 196 kts | 3° |
| 2026-04-17 22:14 | 37.70181 | 23.73508 | 4033 ft | 193 kts | 30° |
| 2026-04-17 22:14 | 37.71331 | 23.74405 | 4013 ft | 196 kts | 31° |
| 2026-04-17 22:14 | 37.72473 | 23.75371 | 4031 ft | 198 kts | 33° |
| 2026-04-17 22:14 | 37.73551 | 23.76355 | 4031 ft | 186 kts | 34° |
| 2026-04-17 22:15 | 37.74544 | 23.77292 | 4019 ft | 169 kts | 34° |
| 2026-04-17 22:15 | 37.75451 | 23.78157 | 4011 ft | 160 kts | 34° |
| 2026-04-17 22:15 | 37.76333 | 23.78999 | 4007 ft | 159 kts | 33° |
| 2026-04-17 22:15 | 37.77227 | 23.79852 | 3978 ft | 165 kts | 34° |
| 2026-04-17 22:16 | 37.78156 | 23.80740 | 3780 ft | 168 kts | 33° |
| 2026-04-17 22:16 | 37.79078 | 23.81623 | 3552 ft | 164 kts | 33° |
| 2026-04-17 22:16 | 37.79981 | 23.82488 | 3339 ft | 161 kts | 34° |
| 2026-04-17 22:16 | 37.80862 | 23.83332 | 3134 ft | 157 kts | 33° |
| 2026-04-17 22:17 | 37.81737 | 23.84168 | 2920 ft | 158 kts | 33° |
| 2026-04-17 22:17 | 37.82619 | 23.85011 | 2711 ft | 161 kts | 33° |
| 2026-04-17 22:17 | 37.83513 | 23.85866 | 2495 ft | 160 kts | 33° |
| 2026-04-17 22:17 | 37.84373 | 23.86692 | 2271 ft | 149 kts | 33° |
| 2026-04-17 22:18 | 37.85168 | 23.87452 | 2087 ft | 140 kts | 32° |
| 2026-04-17 22:18 | 37.85934 | 23.88183 | 1891 ft | 139 kts | 32° |
| 2026-04-17 22:18 | 37.86670 | 23.88891 | 1707 ft | 131 kts | 33° |
| 2026-04-17 22:18 | 37.87417 | 23.89597 | 1516 ft | 140 kts | 34° |
| 2026-04-17 22:19 | 37.88148 | 23.90329 | 1402 ft | 135 kts | 34° |
| 2026-04-17 22:19 | 37.88933 | 23.91058 | 1165 ft | 140 kts | 32° |
| 2026-04-17 22:19 | 37.89709 | 23.91792 | 988 ft | 141 kts | 34° |
| 2026-04-17 22:19 | 37.90490 | 23.92541 | 815 ft | 141 kts | 33° |
| 2026-04-17 22:20 | 37.91285 | 23.93298 | 611 ft | 144 kts | 34° |
| 2026-04-17 22:20 | 37.92070 | 23.94068 | 433 ft | 145 kts | 35° |
| 2026-04-17 22:20 | 37.92884 | 23.94803 | 308 ft | 137 kts | 29° |
| 2026-04-17 22:20 | 37.93621 | 23.95548 | 466 ft | 144 kts | 35° |
| 2026-04-17 22:21 | 37.94405 | 23.96303 | 1312 ft | 145 kts | 33° |
| 2026-04-17 22:21 | 37.95281 | 23.97051 | 2242 ft | 162 kts | 30° |
| 2026-04-17 22:21 | 37.96240 | 23.97867 | 2824 ft | 162 kts | 30° |
| 2026-04-17 22:21 | 37.97196 | 23.98672 | 2920 ft | 168 kts | 30° |
| 2026-04-17 22:22 | 37.98193 | 23.99506 | 2980 ft | 176 kts | 30° |
| 2026-04-17 22:22 | 37.99263 | 24.00405 | 3054 ft | 193 kts | 30° |
| 2026-04-17 22:22 | 38.00423 | 24.01351 | 4001 ft | 198 kts | 30° |
| 2026-04-17 22:22 | 38.01623 | 24.02290 | 4695 ft | 204 kts | 30° |
| 2026-04-17 22:23 | 38.02824 | 24.03260 | 4956 ft | 208 kts | 38° |
| 2026-04-17 22:23 | 38.03623 | 24.04801 | 4992 ft | 219 kts | 70° |
| 2026-04-17 22:23 | 38.03608 | 24.06773 | 4999 ft | 234 kts | 101° |
| 2026-04-17 22:23 | 38.02843 | 24.08635 | 5007 ft | 241 kts | 115° |
| 2026-04-17 22:24 | 38.01929 | 24.10395 | 4999 ft | 242 kts | 117° |
| 2026-04-17 22:24 | 38.00988 | 24.12169 | 4993 ft | 243 kts | 118° |
| 2026-04-17 22:24 | 37.99663 | 24.13558 | 4997 ft | 263 kts | 154° |
| 2026-04-17 22:24 | 37.97846 | 24.14295 | 4999 ft | 280 kts | 160° |
| 2026-04-17 22:25 | 37.95961 | 24.14974 | 5001 ft | 282 kts | 160° |
| 2026-04-17 22:25 | 37.94069 | 24.15647 | 4989 ft | 282 kts | 160° |
| 2026-04-17 22:25 | 37.92181 | 24.16326 | 4981 ft | 282 kts | 160° |
| 2026-04-17 22:25 | 37.90298 | 24.17010 | 4985 ft | 281 kts | 160° |
| 2026-04-17 22:26 | 37.88422 | 24.17699 | 4995 ft | 280 kts | 160° |
| 2026-04-17 22:26 | 37.86549 | 24.18390 | 4990 ft | 280 kts | 160° |
| 2026-04-17 22:26 | 37.84680 | 24.19084 | 4985 ft | 280 kts | 160° |
| 2026-04-17 22:26 | 37.82807 | 24.19781 | 4982 ft | 280 kts | 160° |
| 2026-04-17 22:27 | 37.80962 | 24.20468 | 4978 ft | 280 kts | 160° |
| 2026-04-17 22:27 | 37.79094 | 24.21165 | 4971 ft | 279 kts | 161° |
| 2026-04-17 22:27 | 37.77234 | 24.21859 | 4974 ft | 278 kts | 161° |
| 2026-04-17 22:27 | 37.75376 | 24.22552 | 4975 ft | 278 kts | 161° |
| 2026-04-17 22:28 | 37.73520 | 24.23244 | 4983 ft | 278 kts | 160° |
| 2026-04-17 22:28 | 37.71662 | 24.23937 | 4977 ft | 279 kts | 160° |
| 2026-04-17 22:28 | 37.69797 | 24.24632 | 4971 ft | 280 kts | 161° |
| 2026-04-17 22:28 | 37.67888 | 24.25109 | 4943 ft | 283 kts | 182° |
| 2026-04-17 22:29 | 37.66046 | 24.24338 | 4969 ft | 281 kts | 217° |
| 2026-04-17 22:29 | 37.64763 | 24.22541 | 4978 ft | 274 kts | 245° |
| 2026-04-17 22:29 | 37.64159 | 24.20326 | 4967 ft | 269 kts | 266° |
| 2026-04-17 22:29 | 37.63977 | 24.17985 | 4974 ft | 268 kts | 270° |
| 2026-04-17 22:30 | 37.63856 | 24.15632 | 4962 ft | 269 kts | 271° |
| 2026-04-17 22:30 | 37.63743 | 24.13274 | 4962 ft | 269 kts | 270° |
| 2026-04-17 22:30 | 37.63625 | 24.10911 | 4964 ft | 269 kts | 270° |
| 2026-04-17 22:30 | 37.63501 | 24.08549 | 4977 ft | 269 kts | 270° |
| 2026-04-17 22:31 | 37.63372 | 24.06186 | 4972 ft | 269 kts | 270° |
| 2026-04-17 22:31 | 37.63240 | 24.03835 | 4966 ft | 269 kts | 270° |
| 2026-04-17 22:31 | 37.63106 | 24.01478 | 4983 ft | 269 kts | 270° |
| 2026-04-17 22:31 | 37.62972 | 23.99157 | 4987 ft | 269 kts | 270° |
| 2026-04-17 22:32 | 37.62835 | 23.96803 | 4977 ft | 269 kts | 270° |
| 2026-04-17 22:32 | 37.62697 | 23.94446 | 4970 ft | 269 kts | 270° |
| 2026-04-17 22:32 | 37.62558 | 23.92089 | 4975 ft | 269 kts | 270° |
| 2026-04-17 22:32 | 37.62418 | 23.89730 | 4984 ft | 269 kts | 270° |
| 2026-04-17 22:33 | 37.62278 | 23.87370 | 4984 ft | 270 kts | 270° |
| 2026-04-17 22:33 | 37.62138 | 23.85007 | 4983 ft | 270 kts | 269° |
| 2026-04-17 22:33 | 37.61996 | 23.82650 | 4982 ft | 270 kts | 270° |
| 2026-04-17 22:33 | 37.61854 | 23.80289 | 4980 ft | 270 kts | 269° |
| 2026-04-17 22:34 | 37.61738 | 23.77921 | 4977 ft | 269 kts | 276° |
| 2026-04-17 22:34 | 37.62234 | 23.75714 | 4980 ft | 259 kts | 305° |
| 2026-04-17 22:34 | 37.63430 | 23.74139 | 4997 ft | 250 kts | 331° |
| 2026-04-17 22:34 | 37.65013 | 23.73308 | 4988 ft | 245 kts | 352° |
| 2026-04-17 22:35 | 37.66702 | 23.73065 | 4997 ft | 244 kts | 359° |
| 2026-04-17 22:35 | 37.68400 | 23.72953 | 4988 ft | 245 kts | 1° |
| 2026-04-17 22:35 | 37.70034 | 23.73342 | 4946 ft | 235 kts | 23° |
| 2026-04-17 22:35 | 37.71410 | 23.74361 | 4719 ft | 226 kts | 35° |
| 2026-04-17 22:36 | 37.72672 | 23.75522 | 4409 ft | 221 kts | 36° |
| 2026-04-17 22:36 | 37.73896 | 23.76670 | 4104 ft | 217 kts | 36° |
| 2026-04-17 22:36 | 37.75087 | 23.77802 | 4038 ft | 212 kts | 36° |
| 2026-04-17 22:36 | 37.76229 | 23.78896 | 4010 ft | 199 kts | 36° |
| 2026-04-17 22:37 | 37.77307 | 23.79929 | 3907 ft | 185 kts | 36° |
| 2026-04-17 22:37 | 37.78317 | 23.80896 | 3682 ft | 176 kts | 36° |
| 2026-04-17 22:37 | 37.79256 | 23.81795 | 3457 ft | 166 kts | 35° |
| 2026-04-17 22:37 | 37.80151 | 23.82652 | 3243 ft | 157 kts | 35° |
| 2026-04-17 22:38 | 37.81005 | 23.83470 | 3056 ft | 151 kts | 34° |
| 2026-04-17 22:38 | 37.81831 | 23.84259 | 2844 ft | 146 kts | 34° |
| 2026-04-17 22:38 | 37.82636 | 23.85029 | 2653 ft | 144 kts | 34° |
| 2026-04-17 22:38 | 37.83435 | 23.85793 | 2456 ft | 143 kts | 34° |
| 2026-04-17 22:39 | 37.84208 | 23.86533 | 2270 ft | 137 kts | 33° |
| 2026-04-17 22:39 | 37.84973 | 23.87263 | 2099 ft | 140 kts | 33° |
| 2026-04-17 22:39 | 37.86544 | 23.88766 | 1721 ft | 147 kts | 33° |
| 2026-04-17 22:40 | 37.87353 | 23.89539 | 1509 ft | 148 kts | 34° |
| 2026-04-17 22:40 | 37.88126 | 23.90291 | 1355 ft | 131 kts | 34° |
| 2026-04-17 22:40 | 37.88840 | 23.90964 | 1147 ft | 131 kts | 34° |
| 2026-04-17 22:40 | 37.89592 | 23.91682 | 1023 ft | 139 kts | 33° |
| 2026-04-17 22:41 | 37.90385 | 23.92441 | 830 ft | 143 kts | 33° |
| 2026-04-17 22:41 | 37.91196 | 23.93183 | 623 ft | 144 kts | 32° |
| 2026-04-17 22:41 | 37.91968 | 23.93988 | 454 ft | 145 kts | 37° |
| 2026-04-17 22:41 | 37.92779 | 23.94743 | 319 ft | 145 kts | 32° |
| 2026-04-17 22:42 | 37.93522 | 23.95437 | 285 ft | 113 kts | 39° |
| 2026-04-17 22:42 | 37.94022 | 23.95919 | 285 ft | 56 kts | 36° |
| 2026-04-17 22:42 | 37.94189 | 23.96001 | 284 ft | 23 kts | 9° |
| 2026-04-17 22:42 | 37.94286 | 23.96017 | 295 ft | 9 kts | 358° |
| 2026-04-17 22:43 | 37.94334 | 23.95975 | 297 ft | 9 kts | 292° |
| 2026-04-17 22:43 | 37.94314 | 23.95910 | 298 ft | 9 kts | 217° |
| 2026-04-17 22:43 | 37.94266 | 23.95867 | 299 ft | 8 kts | 214° |
| 2026-04-17 22:43 | 37.94219 | 23.95825 | 297 ft | 8 kts | 216° |
| 2026-04-17 22:44 | 37.94176 | 23.95782 | 300 ft | 8 kts | 218° |
| 2026-04-17 22:44 | 37.94133 | 23.95740 | 297 ft | 8 kts | 218° |
| 2026-04-17 22:44 | 37.94084 | 23.95692 | 297 ft | 11 kts | 216° |
| 2026-04-17 22:44 | 37.94010 | 23.95622 | 295 ft | 15 kts | 216° |
| 2026-04-17 22:45 | 37.93915 | 23.95531 | 298 ft | 18 kts | 217° |
| 2026-04-17 22:45 | 37.93808 | 23.95429 | 298 ft | 20 kts | 216° |
| 2026-04-17 22:45 | 37.93696 | 23.95324 | 298 ft | 20 kts | 216° |
| 2026-04-17 22:45 | 37.93582 | 23.95216 | 301 ft | 20 kts | 217° |
| 2026-04-17 22:46 | 37.93469 | 23.95110 | 299 ft | 20 kts | 216° |
| 2026-04-17 22:46 | 37.93359 | 23.95005 | 299 ft | 19 kts | 217° |
| 2026-04-17 22:46 | 37.93252 | 23.94904 | 298 ft | 19 kts | 216° |
| 2026-04-17 22:46 | 37.93145 | 23.94804 | 300 ft | 19 kts | 217° |
| 2026-04-17 22:47 | 37.93037 | 23.94700 | 302 ft | 20 kts | 217° |
| 2026-04-17 22:47 | 37.92929 | 23.94597 | 302 ft | 20 kts | 217° |
| 2026-04-17 22:47 | 37.92847 | 23.94518 | 301 ft | 10 kts | 217° |
| 2026-04-17 22:47 | 37.92830 | 23.94445 | 302 ft | 10 kts | 301° |
| 2026-04-17 22:48 | 37.92870 | 23.94374 | 301 ft | 11 kts | 308° |
| 2026-04-17 22:48 | 37.92919 | 23.94297 | 303 ft | 10 kts | 310° |
| 2026-04-17 22:48 | 37.92949 | 23.94266 | 300 ft | 4 kts | 352° |
| 2026-04-17 22:48 | 37.92970 | 23.94280 | 300 ft | 4 kts | 33° |
| 2026-04-17 22:49 | 37.92994 | 23.94302 | 301 ft | 3 kts | 38° |
| 2026-04-17 22:49 | 37.93011 | 23.94319 | 301 ft | 3 kts | 37° |
| 2026-04-17 22:49 | 37.93021 | 23.94329 | 301 ft | 0 kts | 37° |